sensor_id;sensor_type;location;lat;lon;timestamp;P1;durP1;ratioP1;P2;durP2;ratioP2
12163;SDS011;6145;50.192;10.064;2023-08-21T00:01:31;11.57;;;7.38;;
12163;SDS011;6145;50.192;10.064;2023-08-21T00:03:58;8.35;;;7.45;;
12163;SDS011;6145;50.192;10.064;2023-08-21T00:06:25;8.48;;;7.78;;
12163;SDS011;6145;50.192;10.064;2023-08-21T00:08:52;7.38;;;6.68;;
12163;SDS011;6145;50.192;10.064;2023-08-21T00:11:20;8.68;;;7.88;;
12163;SDS011;6145;50.192;10.064;2023-08-21T00:13:47;8.45;;;7.32;;
12163;SDS011;6145;50.192;10.064;2023-08-21T00:16:14;8.98;;;8.18;;
12163;SDS011;6145;50.192;10.064;2023-08-21T00:18:42;9.05;;;8.30;;
12163;SDS011;6145;50.192;10.064;2023-08-21T00:21:09;8.70;;;7.80;;
12163;SDS011;6145;50.192;10.064;2023-08-21T00:23:36;9.23;;;8.35;;
12163;SDS011;6145;50.192;10.064;2023-08-21T00:26:03;8.63;;;7.75;;
12163;SDS011;6145;50.192;10.064;2023-08-21T00:28:31;8.82;;;7.95;;
12163;SDS011;6145;50.192;10.064;2023-08-21T00:31:00;8.85;;;8.05;;
12163;SDS011;6145;50.192;10.064;2023-08-21T00:33:27;8.27;;;7.55;;
12163;SDS011;6145;50.192;10.064;2023-08-21T00:35:54;9.80;;;8.43;;
12163;SDS011;6145;50.192;10.064;2023-08-21T00:38:21;9.70;;;8.68;;
12163;SDS011;6145;50.192;10.064;2023-08-21T00:40:48;10.63;;;9.55;;
12163;SDS011;6145;50.192;10.064;2023-08-21T00:43:15;9.82;;;8.90;;
12163;SDS011;6145;50.192;10.064;2023-08-21T00:45:44;9.15;;;8.43;;
12163;SDS011;6145;50.192;10.064;2023-08-21T00:48:11;8.65;;;7.82;;
12163;SDS011;6145;50.192;10.064;2023-08-21T00:50:39;10.35;;;9.45;;
12163;SDS011;6145;50.192;10.064;2023-08-21T00:53:07;9.27;;;8.38;;
12163;SDS011;6145;50.192;10.064;2023-08-21T00:55:34;10.93;;;9.65;;
12163;SDS011;6145;50.192;10.064;2023-08-21T00:58:01;9.07;;;8.18;;
12163;SDS011;6145;50.192;10.064;2023-08-21T01:00:30;9.85;;;8.95;;
12163;SDS011;6145;50.192;10.064;2023-08-21T01:02:58;9.00;;;8.15;;
12163;SDS011;6145;50.192;10.064;2023-08-21T01:05:25;10.20;;;8.23;;
12163;SDS011;6145;50.192;10.064;2023-08-21T01:07:53;10.45;;;8.82;;
12163;SDS011;6145;50.192;10.064;2023-08-21T01:10:27;10.20;;;9.13;;
12163;SDS011;6145;50.192;10.064;2023-08-21T01:13:09;10.35;;;8.88;;
12163;SDS011;6145;50.192;10.064;2023-08-21T01:15:44;9.80;;;8.90;;
12163;SDS011;6145;50.192;10.064;2023-08-21T01:18:13;11.27;;;10.10;;
12163;SDS011;6145;50.192;10.064;2023-08-21T01:20:41;9.90;;;9.00;;
12163;SDS011;6145;50.192;10.064;2023-08-21T01:23:08;8.93;;;8.05;;
12163;SDS011;6145;50.192;10.064;2023-08-21T01:25:36;9.68;;;8.77;;
12163;SDS011;6145;50.192;10.064;2023-08-21T01:28:04;10.50;;;9.50;;
12163;SDS011;6145;50.192;10.064;2023-08-21T01:30:31;9.48;;;8.68;;
12163;SDS011;6145;50.192;10.064;2023-08-21T01:32:59;9.88;;;8.98;;
12163;SDS011;6145;50.192;10.064;2023-08-21T01:35:31;10.88;;;8.63;;
12163;SDS011;6145;50.192;10.064;2023-08-21T01:38:00;9.85;;;9.00;;
12163;SDS011;6145;50.192;10.064;2023-08-21T01:40:28;11.73;;;9.07;;
12163;SDS011;6145;50.192;10.064;2023-08-21T01:42:56;10.40;;;9.32;;
12163;SDS011;6145;50.192;10.064;2023-08-21T01:45:23;10.07;;;9.10;;
12163;SDS011;6145;50.192;10.064;2023-08-21T01:47:50;9.68;;;8.73;;
12163;SDS011;6145;50.192;10.064;2023-08-21T01:50:16;10.85;;;9.43;;
12163;SDS011;6145;50.192;10.064;2023-08-21T01:52:45;10.50;;;9.38;;
12163;SDS011;6145;50.192;10.064;2023-08-21T01:55:11;9.73;;;8.82;;
12163;SDS011;6145;50.192;10.064;2023-08-21T01:57:39;11.23;;;8.88;;
12163;SDS011;6145;50.192;10.064;2023-08-21T02:00:09;12.18;;;9.20;;
12163;SDS011;6145;50.192;10.064;2023-08-21T02:02:37;9.85;;;8.93;;
12163;SDS011;6145;50.192;10.064;2023-08-21T02:05:05;11.18;;;9.07;;
12163;SDS011;6145;50.192;10.064;2023-08-21T02:07:32;10.30;;;9.40;;
12163;SDS011;6145;50.192;10.064;2023-08-21T02:09:59;10.07;;;9.07;;
12163;SDS011;6145;50.192;10.064;2023-08-21T02:12:26;10.18;;;8.73;;
12163;SDS011;6145;50.192;10.064;2023-08-21T02:14:52;10.40;;;9.30;;
12163;SDS011;6145;50.192;10.064;2023-08-21T02:17:21;10.35;;;9.52;;
12163;SDS011;6145;50.192;10.064;2023-08-21T02:19:47;11.25;;;10.23;;
12163;SDS011;6145;50.192;10.064;2023-08-21T02:22:14;10.15;;;9.10;;
12163;SDS011;6145;50.192;10.064;2023-08-21T02:24:41;10.38;;;9.48;;
12163;SDS011;6145;50.192;10.064;2023-08-21T02:27:08;11.80;;;10.63;;
12163;SDS011;6145;50.192;10.064;2023-08-21T02:29:35;9.50;;;8.73;;
12163;SDS011;6145;50.192;10.064;2023-08-21T02:32:02;10.80;;;9.80;;
12163;SDS011;6145;50.192;10.064;2023-08-21T02:34:30;11.60;;;9.38;;
12163;SDS011;6145;50.192;10.064;2023-08-21T02:36:57;13.43;;;10.73;;
12163;SDS011;6145;50.192;10.064;2023-08-21T02:39:24;11.20;;;9.30;;
12163;SDS011;6145;50.192;10.064;2023-08-21T02:41:51;11.13;;;9.52;;
12163;SDS011;6145;50.192;10.064;2023-08-21T02:44:18;9.93;;;9.13;;
12163;SDS011;6145;50.192;10.064;2023-08-21T02:46:45;10.25;;;9.45;;
12163;SDS011;6145;50.192;10.064;2023-08-21T02:49:11;9.73;;;8.82;;
12163;SDS011;6145;50.192;10.064;2023-08-21T02:51:40;11.23;;;10.20;;
12163;SDS011;6145;50.192;10.064;2023-08-21T02:54:06;10.18;;;9.18;;
12163;SDS011;6145;50.192;10.064;2023-08-21T02:56:33;11.77;;;9.10;;
12163;SDS011;6145;50.192;10.064;2023-08-21T02:59:00;10.88;;;9.82;;
12163;SDS011;6145;50.192;10.064;2023-08-21T03:01:27;10.23;;;9.32;;
12163;SDS011;6145;50.192;10.064;2023-08-21T03:03:54;10.73;;;9.63;;
12163;SDS011;6145;50.192;10.064;2023-08-21T03:06:21;10.45;;;9.52;;
12163;SDS011;6145;50.192;10.064;2023-08-21T03:08:49;11.52;;;9.25;;
12163;SDS011;6145;50.192;10.064;2023-08-21T03:11:16;10.23;;;9.23;;
12163;SDS011;6145;50.192;10.064;2023-08-21T03:13:43;11.30;;;10.23;;
12163;SDS011;6145;50.192;10.064;2023-08-21T03:16:10;10.65;;;9.13;;
12163;SDS011;6145;50.192;10.064;2023-08-21T03:18:53;9.75;;;8.80;;
12163;SDS011;6145;50.192;10.064;2023-08-21T03:21:21;10.55;;;9.45;;
12163;SDS011;6145;50.192;10.064;2023-08-21T03:23:51;10.25;;;9.35;;
12163;SDS011;6145;50.192;10.064;2023-08-21T03:26:20;10.43;;;8.77;;
12163;SDS011;6145;50.192;10.064;2023-08-21T03:28:47;10.02;;;9.13;;
12163;SDS011;6145;50.192;10.064;2023-08-21T03:31:14;11.20;;;10.25;;
12163;SDS011;6145;50.192;10.064;2023-08-21T03:33:41;11.02;;;9.77;;
12163;SDS011;6145;50.192;10.064;2023-08-21T03:36:08;9.68;;;8.77;;
12163;SDS011;6145;50.192;10.064;2023-08-21T03:38:35;11.10;;;10.02;;
12163;SDS011;6145;50.192;10.064;2023-08-21T03:41:03;10.73;;;9.25;;
12163;SDS011;6145;50.192;10.064;2023-08-21T03:43:30;11.40;;;10.20;;
12163;SDS011;6145;50.192;10.064;2023-08-21T03:45:57;10.98;;;9.43;;
12163;SDS011;6145;50.192;10.064;2023-08-21T03:48:24;9.60;;;8.70;;
12163;SDS011;6145;50.192;10.064;2023-08-21T03:50:51;10.82;;;9.82;;
12163;SDS011;6145;50.192;10.064;2023-08-21T03:53:18;10.05;;;9.15;;
12163;SDS011;6145;50.192;10.064;2023-08-21T03:55:45;11.20;;;10.13;;
12163;SDS011;6145;50.192;10.064;2023-08-21T03:58:13;10.65;;;9.55;;
12163;SDS011;6145;50.192;10.064;2023-08-21T04:00:40;11.02;;;10.10;;
12163;SDS011;6145;50.192;10.064;2023-08-21T04:03:07;11.02;;;9.93;;
12163;SDS011;6145;50.192;10.064;2023-08-21T04:05:34;9.93;;;9.13;;
12163;SDS011;6145;50.192;10.064;2023-08-21T04:08:01;10.80;;;9.88;;
12163;SDS011;6145;50.192;10.064;2023-08-21T04:10:28;13.82;;;10.77;;
12163;SDS011;6145;50.192;10.064;2023-08-21T04:12:55;12.20;;;10.18;;
12163;SDS011;6145;50.192;10.064;2023-08-21T04:15:23;11.30;;;10.10;;
12163;SDS011;6145;50.192;10.064;2023-08-21T04:17:50;11.52;;;10.07;;
12163;SDS011;6145;50.192;10.064;2023-08-21T04:20:17;10.80;;;9.80;;
12163;SDS011;6145;50.192;10.064;2023-08-21T04:22:44;10.95;;;9.90;;
12163;SDS011;6145;50.192;10.064;2023-08-21T04:25:11;11.32;;;9.45;;
12163;SDS011;6145;50.192;10.064;2023-08-21T04:27:37;10.82;;;9.52;;
12163;SDS011;6145;50.192;10.064;2023-08-21T04:30:05;10.82;;;9.82;;
12163;SDS011;6145;50.192;10.064;2023-08-21T04:32:34;11.07;;;10.18;;
12163;SDS011;6145;50.192;10.064;2023-08-21T04:35:01;11.60;;;10.30;;
12163;SDS011;6145;50.192;10.064;2023-08-21T04:37:28;10.35;;;9.35;;
12163;SDS011;6145;50.192;10.064;2023-08-21T04:39:55;10.75;;;9.75;;
12163;SDS011;6145;50.192;10.064;2023-08-21T04:42:22;11.32;;;10.23;;
12163;SDS011;6145;50.192;10.064;2023-08-21T04:44:49;10.70;;;9.60;;
12163;SDS011;6145;50.192;10.064;2023-08-21T04:47:19;10.73;;;9.40;;
12163;SDS011;6145;50.192;10.064;2023-08-21T04:49:49;11.70;;;10.60;;
12163;SDS011;6145;50.192;10.064;2023-08-21T04:52:16;13.35;;;10.07;;
12163;SDS011;6145;50.192;10.064;2023-08-21T04:54:42;11.93;;;10.45;;
12163;SDS011;6145;50.192;10.064;2023-08-21T04:57:10;11.55;;;10.35;;
12163;SDS011;6145;50.192;10.064;2023-08-21T04:59:37;10.35;;;9.50;;
12163;SDS011;6145;50.192;10.064;2023-08-21T05:02:05;10.95;;;9.98;;
12163;SDS011;6145;50.192;10.064;2023-08-21T05:04:32;11.57;;;10.38;;
12163;SDS011;6145;50.192;10.064;2023-08-21T05:07:03;10.20;;;9.38;;
12163;SDS011;6145;50.192;10.064;2023-08-21T05:09:30;12.00;;;9.80;;
12163;SDS011;6145;50.192;10.064;2023-08-21T05:11:57;12.27;;;10.15;;
12163;SDS011;6145;50.192;10.064;2023-08-21T05:14:24;12.50;;;11.35;;
12163;SDS011;6145;50.192;10.064;2023-08-21T05:16:51;10.77;;;9.77;;
12163;SDS011;6145;50.192;10.064;2023-08-21T05:19:18;12.68;;;10.38;;
12163;SDS011;6145;50.192;10.064;2023-08-21T05:21:45;13.57;;;12.18;;
12163;SDS011;6145;50.192;10.064;2023-08-21T05:24:13;11.30;;;10.30;;
12163;SDS011;6145;50.192;10.064;2023-08-21T05:26:40;10.90;;;9.75;;
12163;SDS011;6145;50.192;10.064;2023-08-21T05:29:07;10.55;;;9.65;;
12163;SDS011;6145;50.192;10.064;2023-08-21T05:31:34;12.50;;;11.27;;
12163;SDS011;6145;50.192;10.064;2023-08-21T05:34:00;10.52;;;9.45;;
12163;SDS011;6145;50.192;10.064;2023-08-21T05:36:27;14.60;;;12.88;;
12163;SDS011;6145;50.192;10.064;2023-08-21T05:38:56;11.70;;;10.07;;
12163;SDS011;6145;50.192;10.064;2023-08-21T05:41:24;12.00;;;10.90;;
12163;SDS011;6145;50.192;10.064;2023-08-21T05:43:51;11.10;;;9.98;;
12163;SDS011;6145;50.192;10.064;2023-08-21T05:46:18;13.40;;;12.05;;
12163;SDS011;6145;50.192;10.064;2023-08-21T05:48:44;12.88;;;11.77;;
12163;SDS011;6145;50.192;10.064;2023-08-21T05:51:11;12.77;;;11.40;;
12163;SDS011;6145;50.192;10.064;2023-08-21T05:53:39;14.35;;;12.63;;
12163;SDS011;6145;50.192;10.064;2023-08-21T05:56:06;13.38;;;12.13;;
12163;SDS011;6145;50.192;10.064;2023-08-21T05:58:34;13.90;;;12.50;;
12163;SDS011;6145;50.192;10.064;2023-08-21T06:01:01;13.82;;;12.30;;
12163;SDS011;6145;50.192;10.064;2023-08-21T06:03:27;13.38;;;12.07;;
12163;SDS011;6145;50.192;10.064;2023-08-21T06:05:55;13.13;;;11.88;;
12163;SDS011;6145;50.192;10.064;2023-08-21T06:08:23;12.45;;;11.13;;
12163;SDS011;6145;50.192;10.064;2023-08-21T06:11:04;12.73;;;11.45;;
12163;SDS011;6145;50.192;10.064;2023-08-21T06:13:49;13.23;;;11.98;;
12163;SDS011;6145;50.192;10.064;2023-08-21T06:16:16;12.52;;;11.07;;
12163;SDS011;6145;50.192;10.064;2023-08-21T06:18:43;9.95;;;8.95;;
12163;SDS011;6145;50.192;10.064;2023-08-21T06:21:10;13.85;;;12.55;;
12163;SDS011;6145;50.192;10.064;2023-08-21T06:26:12;14.68;;;13.38;;
12163;SDS011;6145;50.192;10.064;2023-08-21T06:28:39;13.35;;;12.32;;
12163;SDS011;6145;50.192;10.064;2023-08-21T06:31:08;12.95;;;11.52;;
12163;SDS011;6145;50.192;10.064;2023-08-21T06:33:35;11.95;;;10.77;;
12163;SDS011;6145;50.192;10.064;2023-08-21T06:36:03;14.05;;;10.43;;
12163;SDS011;6145;50.192;10.064;2023-08-21T06:38:30;10.93;;;9.93;;
12163;SDS011;6145;50.192;10.064;2023-08-21T06:40:57;12.13;;;11.13;;
12163;SDS011;6145;50.192;10.064;2023-08-21T06:43:24;13.55;;;12.23;;
12163;SDS011;6145;50.192;10.064;2023-08-21T06:45:51;12.73;;;11.60;;
12163;SDS011;6145;50.192;10.064;2023-08-21T06:48:20;12.15;;;11.00;;
12163;SDS011;6145;50.192;10.064;2023-08-21T06:50:46;12.07;;;11.07;;
12163;SDS011;6145;50.192;10.064;2023-08-21T06:53:13;12.27;;;11.25;;
12163;SDS011;6145;50.192;10.064;2023-08-21T06:55:40;12.25;;;11.07;;
12163;SDS011;6145;50.192;10.064;2023-08-21T06:58:07;11.13;;;10.13;;
12163;SDS011;6145;50.192;10.064;2023-08-21T07:00:34;11.45;;;10.45;;
12163;SDS011;6145;50.192;10.064;2023-08-21T07:03:01;10.60;;;9.55;;
12163;SDS011;6145;50.192;10.064;2023-08-21T07:05:29;11.23;;;10.32;;
12163;SDS011;6145;50.192;10.064;2023-08-21T07:07:56;11.75;;;10.85;;
12163;SDS011;6145;50.192;10.064;2023-08-21T07:10:23;10.57;;;9.68;;
12163;SDS011;6145;50.192;10.064;2023-08-21T07:12:53;11.38;;;10.48;;
12163;SDS011;6145;50.192;10.064;2023-08-21T07:15:20;11.60;;;10.57;;
12163;SDS011;6145;50.192;10.064;2023-08-21T07:17:47;11.93;;;10.77;;
12163;SDS011;6145;50.192;10.064;2023-08-21T07:20:14;11.40;;;10.45;;
12163;SDS011;6145;50.192;10.064;2023-08-21T07:22:42;10.90;;;10.00;;
12163;SDS011;6145;50.192;10.064;2023-08-21T07:25:09;11.43;;;10.30;;
12163;SDS011;6145;50.192;10.064;2023-08-21T07:27:36;10.93;;;10.00;;
12163;SDS011;6145;50.192;10.064;2023-08-21T07:30:04;11.00;;;9.90;;
12163;SDS011;6145;50.192;10.064;2023-08-21T07:32:32;11.57;;;10.43;;
12163;SDS011;6145;50.192;10.064;2023-08-21T07:34:59;10.38;;;9.55;;
12163;SDS011;6145;50.192;10.064;2023-08-21T07:37:26;10.27;;;9.38;;
12163;SDS011;6145;50.192;10.064;2023-08-21T07:39:54;10.35;;;9.45;;
12163;SDS011;6145;50.192;10.064;2023-08-21T07:42:22;10.63;;;9.73;;
12163;SDS011;6145;50.192;10.064;2023-08-21T07:44:49;11.07;;;10.18;;
12163;SDS011;6145;50.192;10.064;2023-08-21T07:47:16;11.82;;;10.70;;
12163;SDS011;6145;50.192;10.064;2023-08-21T07:49:43;11.30;;;10.27;;
12163;SDS011;6145;50.192;10.064;2023-08-21T07:52:10;11.02;;;10.13;;
12163;SDS011;6145;50.192;10.064;2023-08-21T07:54:37;10.93;;;9.80;;
12163;SDS011;6145;50.192;10.064;2023-08-21T07:57:05;10.57;;;9.68;;
12163;SDS011;6145;50.192;10.064;2023-08-21T07:59:32;11.05;;;10.15;;
12163;SDS011;6145;50.192;10.064;2023-08-21T08:01:59;10.30;;;9.40;;
12163;SDS011;6145;50.192;10.064;2023-08-21T08:04:27;10.95;;;10.05;;
12163;SDS011;6145;50.192;10.064;2023-08-21T08:06:54;9.73;;;8.93;;
12163;SDS011;6145;50.192;10.064;2023-08-21T08:09:21;10.60;;;9.70;;
12163;SDS011;6145;50.192;10.064;2023-08-21T08:11:48;11.43;;;10.43;;
12163;SDS011;6145;50.192;10.064;2023-08-21T08:14:16;9.52;;;8.65;;
12163;SDS011;6145;50.192;10.064;2023-08-21T08:16:51;11.43;;;10.43;;
12163;SDS011;6145;50.192;10.064;2023-08-21T08:19:38;10.90;;;9.80;;
12163;SDS011;6145;50.192;10.064;2023-08-21T08:22:05;10.48;;;9.68;;
12163;SDS011;6145;50.192;10.064;2023-08-21T08:24:32;10.93;;;10.00;;
12163;SDS011;6145;50.192;10.064;2023-08-21T08:26:58;10.85;;;9.88;;
12163;SDS011;6145;50.192;10.064;2023-08-21T08:29:28;10.93;;;10.02;;
12163;SDS011;6145;50.192;10.064;2023-08-21T08:31:55;10.65;;;9.77;;
12163;SDS011;6145;50.192;10.064;2023-08-21T08:34:22;10.43;;;9.55;;
12163;SDS011;6145;50.192;10.064;2023-08-21T08:36:49;10.38;;;9.38;;
12163;SDS011;6145;50.192;10.064;2023-08-21T08:39:16;11.10;;;10.20;;
12163;SDS011;6145;50.192;10.064;2023-08-21T08:41:46;11.95;;;10.88;;
12163;SDS011;6145;50.192;10.064;2023-08-21T08:49:45;10.82;;;9.85;;
12163;SDS011;6145;50.192;10.064;2023-08-21T08:52:13;10.88;;;9.98;;
12163;SDS011;6145;50.192;10.064;2023-08-21T08:54:42;9.80;;;9.00;;
12163;SDS011;6145;50.192;10.064;2023-08-21T08:57:10;10.10;;;9.23;;
12163;SDS011;6145;50.192;10.064;2023-08-21T08:59:37;9.10;;;8.32;;
12163;SDS011;6145;50.192;10.064;2023-08-21T09:02:05;9.30;;;8.48;;
12163;SDS011;6145;50.192;10.064;2023-08-21T09:04:34;9.73;;;8.82;;
12163;SDS011;6145;50.192;10.064;2023-08-21T09:07:07;9.65;;;8.75;;
12163;SDS011;6145;50.192;10.064;2023-08-21T09:09:38;8.90;;;8.20;;
12163;SDS011;6145;50.192;10.064;2023-08-21T09:12:08;9.68;;;8.88;;
12163;SDS011;6145;50.192;10.064;2023-08-21T09:14:37;9.23;;;8.30;;
12163;SDS011;6145;50.192;10.064;2023-08-21T09:17:06;9.77;;;8.88;;
12163;SDS011;6145;50.192;10.064;2023-08-21T09:19:33;10.52;;;8.10;;
12163;SDS011;6145;50.192;10.064;2023-08-21T09:22:06;9.88;;;8.88;;
12163;SDS011;6145;50.192;10.064;2023-08-21T09:24:35;9.82;;;8.73;;
12163;SDS011;6145;50.192;10.064;2023-08-21T09:27:02;9.65;;;8.80;;
12163;SDS011;6145;50.192;10.064;2023-08-21T09:29:37;8.65;;;7.80;;
12163;SDS011;6145;50.192;10.064;2023-08-21T09:32:04;9.57;;;8.68;;
12163;SDS011;6145;50.192;10.064;2023-08-21T09:34:34;9.40;;;8.27;;
12163;SDS011;6145;50.192;10.064;2023-08-21T09:37:04;9.07;;;8.20;;
12163;SDS011;6145;50.192;10.064;2023-08-21T09:39:33;9.85;;;8.98;;
12163;SDS011;6145;50.192;10.064;2023-08-21T09:42:01;9.10;;;8.30;;
12163;SDS011;6145;50.192;10.064;2023-08-21T09:44:34;8.90;;;8.00;;
12163;SDS011;6145;50.192;10.064;2023-08-21T09:47:03;9.85;;;8.63;;
12163;SDS011;6145;50.192;10.064;2023-08-21T09:49:35;8.25;;;7.55;;
12163;SDS011;6145;50.192;10.064;2023-08-21T09:52:03;7.88;;;7.18;;
12163;SDS011;6145;50.192;10.064;2023-08-21T09:54:31;7.38;;;6.78;;
12163;SDS011;6145;50.192;10.064;2023-08-21T09:57:00;7.60;;;7.00;;
12163;SDS011;6145;50.192;10.064;2023-08-21T09:59:29;8.35;;;7.22;;
12163;SDS011;6145;50.192;10.064;2023-08-21T10:01:55;7.38;;;6.80;;
12163;SDS011;6145;50.192;10.064;2023-08-21T10:04:25;9.20;;;8.10;;
12163;SDS011;6145;50.192;10.064;2023-08-21T10:06:55;7.57;;;6.70;;
12163;SDS011;6145;50.192;10.064;2023-08-21T10:09:26;6.55;;;5.93;;
12163;SDS011;6145;50.192;10.064;2023-08-21T10:11:54;6.50;;;5.93;;
12163;SDS011;6145;50.192;10.064;2023-08-21T10:14:22;5.90;;;5.32;;
12163;SDS011;6145;50.192;10.064;2023-08-21T10:16:50;5.55;;;5.05;;
12163;SDS011;6145;50.192;10.064;2023-08-21T10:19:19;6.93;;;6.32;;
12163;SDS011;6145;50.192;10.064;2023-08-21T10:21:46;5.45;;;5.03;;
12163;SDS011;6145;50.192;10.064;2023-08-21T10:24:27;6.10;;;5.50;;
12163;SDS011;6145;50.192;10.064;2023-08-21T10:26:57;5.68;;;5.10;;
12163;SDS011;6145;50.192;10.064;2023-08-21T10:29:24;5.70;;;5.30;;
12163;SDS011;6145;50.192;10.064;2023-08-21T10:31:58;5.55;;;5.07;;
12163;SDS011;6145;50.192;10.064;2023-08-21T10:34:30;6.65;;;5.30;;
12163;SDS011;6145;50.192;10.064;2023-08-21T10:37:08;6.90;;;6.20;;
12163;SDS011;6145;50.192;10.064;2023-08-21T10:39:45;7.40;;;6.05;;
12163;SDS011;6145;50.192;10.064;2023-08-21T10:42:21;6.53;;;5.68;;
12163;SDS011;6145;50.192;10.064;2023-08-21T10:45:09;6.47;;;5.97;;
12163;SDS011;6145;50.192;10.064;2023-08-21T10:47:36;5.95;;;5.45;;
12163;SDS011;6145;50.192;10.064;2023-08-21T10:50:04;6.18;;;5.68;;
12163;SDS011;6145;50.192;10.064;2023-08-21T10:52:34;6.68;;;5.90;;
12163;SDS011;6145;50.192;10.064;2023-08-21T10:55:04;6.75;;;5.90;;
12163;SDS011;6145;50.192;10.064;2023-08-21T10:57:32;7.18;;;6.57;;
12163;SDS011;6145;50.192;10.064;2023-08-21T10:59:59;6.80;;;6.20;;
12163;SDS011;6145;50.192;10.064;2023-08-21T11:02:28;6.97;;;6.40;;
12163;SDS011;6145;50.192;10.064;2023-08-21T11:04:56;6.88;;;6.30;;
12163;SDS011;6145;50.192;10.064;2023-08-21T11:07:24;7.65;;;6.90;;
12163;SDS011;6145;50.192;10.064;2023-08-21T11:09:51;6.30;;;5.78;;
12163;SDS011;6145;50.192;10.064;2023-08-21T11:12:19;6.07;;;5.47;;
12163;SDS011;6145;50.192;10.064;2023-08-21T11:14:49;6.40;;;5.57;;
12163;SDS011;6145;50.192;10.064;2023-08-21T11:17:16;7.13;;;5.60;;
12163;SDS011;6145;50.192;10.064;2023-08-21T11:19:43;6.38;;;5.78;;
12163;SDS011;6145;50.192;10.064;2023-08-21T11:22:10;5.60;;;5.20;;
12163;SDS011;6145;50.192;10.064;2023-08-21T11:24:41;6.40;;;5.78;;
12163;SDS011;6145;50.192;10.064;2023-08-21T11:27:10;7.00;;;6.30;;
12163;SDS011;6145;50.192;10.064;2023-08-21T11:29:41;6.93;;;6.32;;
12163;SDS011;6145;50.192;10.064;2023-08-21T11:32:15;6.03;;;5.53;;
12163;SDS011;6145;50.192;10.064;2023-08-21T11:34:47;5.05;;;4.70;;
12163;SDS011;6145;50.192;10.064;2023-08-21T11:37:15;5.40;;;4.93;;
12163;SDS011;6145;50.192;10.064;2023-08-21T11:39:44;5.50;;;5.10;;
12163;SDS011;6145;50.192;10.064;2023-08-21T11:42:12;4.97;;;4.57;;
12163;SDS011;6145;50.192;10.064;2023-08-21T11:44:42;6.18;;;5.57;;
12163;SDS011;6145;50.192;10.064;2023-08-21T11:47:10;5.78;;;5.18;;
12163;SDS011;6145;50.192;10.064;2023-08-21T11:49:37;5.65;;;5.15;;
12163;SDS011;6145;50.192;10.064;2023-08-21T11:52:06;4.75;;;4.32;;
12163;SDS011;6145;50.192;10.064;2023-08-21T11:54:33;5.82;;;5.22;;
12163;SDS011;6145;50.192;10.064;2023-08-21T11:57:03;5.93;;;5.43;;
12163;SDS011;6145;50.192;10.064;2023-08-21T11:59:31;5.00;;;4.60;;
12163;SDS011;6145;50.192;10.064;2023-08-21T12:01:59;5.65;;;5.13;;
12163;SDS011;6145;50.192;10.064;2023-08-21T12:04:27;6.53;;;5.18;;
12163;SDS011;6145;50.192;10.064;2023-08-21T12:06:54;6.47;;;5.88;;
12163;SDS011;6145;50.192;10.064;2023-08-21T12:09:20;5.95;;;4.68;;
12163;SDS011;6145;50.192;10.064;2023-08-21T12:11:47;5.20;;;4.70;;
12163;SDS011;6145;50.192;10.064;2023-08-21T12:14:14;6.15;;;4.63;;
12163;SDS011;6145;50.192;10.064;2023-08-21T12:16:42;4.97;;;4.57;;
12163;SDS011;6145;50.192;10.064;2023-08-21T12:19:11;4.50;;;4.20;;
12163;SDS011;6145;50.192;10.064;2023-08-21T12:21:39;4.60;;;4.20;;
12163;SDS011;6145;50.192;10.064;2023-08-21T12:24:06;4.88;;;4.30;;
12163;SDS011;6145;50.192;10.064;2023-08-21T12:26:33;5.10;;;4.60;;
12163;SDS011;6145;50.192;10.064;2023-08-21T12:29:00;4.18;;;3.80;;
12163;SDS011;6145;50.192;10.064;2023-08-21T12:31:28;4.30;;;3.90;;
12163;SDS011;6145;50.192;10.064;2023-08-21T12:33:55;4.18;;;3.78;;
12163;SDS011;6145;50.192;10.064;2023-08-21T12:36:23;4.35;;;3.97;;
12163;SDS011;6145;50.192;10.064;2023-08-21T12:38:50;6.15;;;3.72;;
12163;SDS011;6145;50.192;10.064;2023-08-21T12:41:17;4.45;;;3.90;;
12163;SDS011;6145;50.192;10.064;2023-08-21T12:43:44;4.75;;;4.45;;
12163;SDS011;6145;50.192;10.064;2023-08-21T12:46:11;4.65;;;4.18;;
12163;SDS011;6145;50.192;10.064;2023-08-21T12:48:38;4.93;;;4.30;;
12163;SDS011;6145;50.192;10.064;2023-08-21T12:51:04;4.72;;;4.32;;
12163;SDS011;6145;50.192;10.064;2023-08-21T12:53:32;5.15;;;4.70;;
12163;SDS011;6145;50.192;10.064;2023-08-21T12:55:59;5.03;;;4.55;;
12163;SDS011;6145;50.192;10.064;2023-08-21T12:58:28;4.97;;;4.55;;
12163;SDS011;6145;50.192;10.064;2023-08-21T13:00:55;4.28;;;3.88;;
12163;SDS011;6145;50.192;10.064;2023-08-21T13:03:22;4.30;;;4.00;;
12163;SDS011;6145;50.192;10.064;2023-08-21T13:05:49;5.18;;;4.20;;
12163;SDS011;6145;50.192;10.064;2023-08-21T13:08:16;4.90;;;4.40;;
12163;SDS011;6145;50.192;10.064;2023-08-21T13:10:44;4.32;;;3.92;;
12163;SDS011;6145;50.192;10.064;2023-08-21T13:13:11;4.18;;;3.83;;
12163;SDS011;6145;50.192;10.064;2023-08-21T13:15:37;4.63;;;3.85;;
12163;SDS011;6145;50.192;10.064;2023-08-21T13:18:04;4.53;;;4.10;;
12163;SDS011;6145;50.192;10.064;2023-08-21T13:20:31;4.03;;;3.53;;
12163;SDS011;6145;50.192;10.064;2023-08-21T13:22:58;6.60;;;3.50;;
12163;SDS011;6145;50.192;10.064;2023-08-21T13:25:25;4.32;;;3.92;;
12163;SDS011;6145;50.192;10.064;2023-08-21T13:27:54;4.13;;;3.70;;
12163;SDS011;6145;50.192;10.064;2023-08-21T13:30:21;4.18;;;3.78;;
12163;SDS011;6145;50.192;10.064;2023-08-21T13:32:48;4.32;;;3.88;;
12163;SDS011;6145;50.192;10.064;2023-08-21T13:35:15;4.82;;;3.80;;
12163;SDS011;6145;50.192;10.064;2023-08-21T13:37:42;4.82;;;4.25;;
12163;SDS011;6145;50.192;10.064;2023-08-21T13:40:09;5.15;;;4.65;;
12163;SDS011;6145;50.192;10.064;2023-08-21T13:42:39;3.95;;;3.55;;
12163;SDS011;6145;50.192;10.064;2023-08-21T13:45:09;4.97;;;4.50;;
12163;SDS011;6145;50.192;10.064;2023-08-21T13:47:37;4.50;;;4.10;;
12163;SDS011;6145;50.192;10.064;2023-08-21T13:50:05;4.45;;;4.10;;
12163;SDS011;6145;50.192;10.064;2023-08-21T13:52:32;4.00;;;3.70;;
12163;SDS011;6145;50.192;10.064;2023-08-21T13:54:59;6.05;;;4.30;;
12163;SDS011;6145;50.192;10.064;2023-08-21T13:57:27;4.20;;;3.90;;
12163;SDS011;6145;50.192;10.064;2023-08-21T13:59:54;4.25;;;3.88;;
12163;SDS011;6145;50.192;10.064;2023-08-21T14:02:22;4.40;;;3.95;;
12163;SDS011;6145;50.192;10.064;2023-08-21T14:04:49;4.18;;;3.78;;
12163;SDS011;6145;50.192;10.064;2023-08-21T14:07:16;4.70;;;4.30;;
12163;SDS011;6145;50.192;10.064;2023-08-21T14:09:43;4.47;;;4.07;;
12163;SDS011;6145;50.192;10.064;2023-08-21T14:12:10;4.25;;;3.95;;
12163;SDS011;6145;50.192;10.064;2023-08-21T14:14:37;4.55;;;4.15;;
12163;SDS011;6145;50.192;10.064;2023-08-21T14:17:04;4.47;;;4.10;;
12163;SDS011;6145;50.192;10.064;2023-08-21T14:19:32;4.15;;;3.85;;
12163;SDS011;6145;50.192;10.064;2023-08-21T14:21:58;5.05;;;4.53;;
12163;SDS011;6145;50.192;10.064;2023-08-21T14:24:26;4.80;;;4.40;;
12163;SDS011;6145;50.192;10.064;2023-08-21T14:26:53;4.90;;;4.50;;
12163;SDS011;6145;50.192;10.064;2023-08-21T14:29:19;4.80;;;4.35;;
12163;SDS011;6145;50.192;10.064;2023-08-21T14:31:46;4.63;;;4.32;;
12163;SDS011;6145;50.192;10.064;2023-08-21T14:34:14;4.75;;;4.35;;
12163;SDS011;6145;50.192;10.064;2023-08-21T14:36:43;4.72;;;4.32;;
12163;SDS011;6145;50.192;10.064;2023-08-21T14:39:10;5.25;;;4.68;;
12163;SDS011;6145;50.192;10.064;2023-08-21T14:41:37;4.90;;;4.40;;
12163;SDS011;6145;50.192;10.064;2023-08-21T14:44:04;4.93;;;4.53;;
12163;SDS011;6145;50.192;10.064;2023-08-21T14:46:31;4.90;;;4.47;;
12163;SDS011;6145;50.192;10.064;2023-08-21T14:48:58;5.07;;;4.25;;
12163;SDS011;6145;50.192;10.064;2023-08-21T14:51:25;5.15;;;4.75;;